createdAt,value
2019-05-17T00:00:47.440Z,73.50
2019-05-17T00:03:17.008Z,73.50
2019-05-17T00:05:46.483Z,73.70
2019-05-17T00:08:13.691Z,74.00
2019-05-17T00:10:40.428Z,73.90
2019-05-17T00:13:08.298Z,74.10
2019-05-17T00:15:37.126Z,74.10
2019-05-17T00:18:03.826Z,74.10
2019-05-17T00:20:30.288Z,73.60
2019-05-17T00:22:57.349Z,73.40
2019-05-17T00:25:24.067Z,73.40
2019-05-17T00:27:50.552Z,73.50
2019-05-17T00:30:17.770Z,73.40
2019-05-17T00:32:44.684Z,73.60
2019-05-17T00:35:11.585Z,73.60
2019-05-17T00:37:38.126Z,73.40
2019-05-17T00:40:07.823Z,73.30
2019-05-17T00:42:34.370Z,73.00
2019-05-17T00:45:06.754Z,72.80
2019-05-17T00:47:33.443Z,73.20
2019-05-17T00:49:59.866Z,73.60
2019-05-17T00:52:27.224Z,74.00
2019-05-17T00:54:56.228Z,74.50
2019-05-17T00:57:22.463Z,74.70
2019-05-17T00:59:49.686Z,74.80
2019-05-17T01:02:16.404Z,74.90
2019-05-17T01:04:43.160Z,74.60
2019-05-17T01:07:09.667Z,74.50
2019-05-17T01:09:36.774Z,74.10
2019-05-17T01:12:03.591Z,74.20
2019-05-17T01:14:30.271Z,74.10
2019-05-17T01:16:56.806Z,74.10
2019-05-17T01:19:23.471Z,74.10
2019-05-17T01:21:49.953Z,74.30
2019-05-17T01:24:17.352Z,74.70
2019-05-17T01:26:44.101Z,74.80
2019-05-17T01:29:10.695Z,74.80
2019-05-17T01:31:37.476Z,74.50
2019-05-17T01:34:04.346Z,74.70
2019-05-17T01:36:30.810Z,74.90
2019-05-17T01:38:57.735Z,74.90
2019-05-17T01:41:26.542Z,75.10
2019-05-17T01:43:52.820Z,75.20
2019-05-17T01:46:19.291Z,75.30
2019-05-17T01:48:47.078Z,75.50
2019-05-17T01:51:13.964Z,75.60
2019-05-17T01:53:40.480Z,75.80
2019-05-17T01:56:07.159Z,75.80
2019-05-17T01:58:33.662Z,75.70
2019-05-17T02:01:00.292Z,75.90
2019-05-17T02:03:26.919Z,76.70
2019-05-17T02:05:53.603Z,77.30
2019-05-17T02:08:20.040Z,77.90
2019-05-17T02:10:46.682Z,78.40
2019-05-17T02:13:16.296Z,78.70
2019-05-17T02:15:42.751Z,78.70
2019-05-17T02:18:09.290Z,78.80
2019-05-17T02:20:37.204Z,79.00
2019-05-17T02:23:04.016Z,78.90
2019-05-17T02:25:30.779Z,79.40
2019-05-17T02:27:57.510Z,79.40
2019-05-17T02:30:24.135Z,79.60
2019-05-17T02:32:54.124Z,79.80
2019-05-17T02:35:23.118Z,80.00
2019-05-17T02:37:49.178Z,79.90
2019-05-17T02:40:17.023Z,79.40
2019-05-17T02:42:43.814Z,78.80
2019-05-17T02:45:13.323Z,79.00
2019-05-17T02:47:43.083Z,78.90
2019-05-17T02:50:23.364Z,78.90
2019-05-17T02:52:52.808Z,78.20
2019-05-17T02:55:18.460Z,76.40
2019-05-17T02:57:45.079Z,74.20
2019-05-17T03:00:13.617Z,75.20
2019-05-17T03:02:43.442Z,73.80
2019-05-17T03:05:12.826Z,73.40
2019-05-17T03:07:38.567Z,73.40
2019-05-17T03:10:20.992Z,74.70
2019-05-17T03:12:34.140Z,75.20
2019-05-17T03:15:04.099Z,75.60
2019-05-17T03:17:29.546Z,76.30
2019-05-17T03:20:15.991Z,76.70
2019-05-17T03:22:43.856Z,77.10
2019-05-17T03:25:13.691Z,77.60
2019-05-17T03:27:42.541Z,78.10
2019-05-17T03:30:08.690Z,79.00
2019-05-17T03:32:48.929Z,79.40
2019-05-17T03:35:18.384Z,79.20
2019-05-17T03:37:53.153Z,79.50
2019-05-17T03:40:36.299Z,79.90
2019-05-17T03:42:47.939Z,79.80
2019-05-17T03:45:14.728Z,79.30
2019-05-17T03:47:44.429Z,79.60
2019-05-17T03:50:13.051Z,79.70
2019-05-17T03:52:53.484Z,79.80
2019-05-17T03:55:23.733Z,79.90
2019-05-17T03:57:53.305Z,79.60
2019-05-17T04:00:38.509Z,79.80
2019-05-17T04:03:05.138Z,79.70
2019-05-17T04:05:33.479Z,79.70
2019-05-17T04:08:03.759Z,79.90
2019-05-17T04:10:33.508Z,80.00
2019-05-17T04:13:03.703Z,80.00
2019-05-17T04:15:32.632Z,80.10
2019-05-17T04:17:57.638Z,80.70
2019-05-17T04:20:24.072Z,80.50
2019-05-17T04:22:53.435Z,80.50
2019-05-17T04:25:23.206Z,81.00
2019-05-17T04:27:48.495Z,80.60
2019-05-17T04:30:15.213Z,80.40
2019-05-17T04:32:44.240Z,80.20
2019-05-17T04:35:12.804Z,79.80
2019-05-17T04:37:38.735Z,80.90
2019-05-17T04:40:05.825Z,79.70
2019-05-17T04:42:33.104Z,79.80
2019-05-17T04:45:07.041Z,79.60
2019-05-17T04:47:33.634Z,79.50
2019-05-17T04:50:03.577Z,79.40
2019-05-17T04:52:28.735Z,79.20
2019-05-17T04:54:55.398Z,79.30
2019-05-17T04:57:23.128Z,79.40
2019-05-17T04:59:52.203Z,79.70
2019-05-17T05:02:24.280Z,79.50
2019-05-17T05:04:53.380Z,79.30
2019-05-17T05:07:19.391Z,79.10
2019-05-17T05:09:47.342Z,79.30
2019-05-17T05:12:13.867Z,79.80
2019-05-17T05:14:42.897Z,81.00
2019-05-17T05:17:08.732Z,80.40
2019-05-17T05:19:35.292Z,80.30
2019-05-17T05:22:04.634Z,80.60
2019-05-17T05:24:33.439Z,80.70
2019-05-17T05:27:03.055Z,80.70
2019-05-17T05:29:32.030Z,80.40
2019-05-17T05:31:57.946Z,81.00
2019-05-17T05:34:24.465Z,80.20
2019-05-17T05:36:52.489Z,80.00
2019-05-17T05:39:19.291Z,80.00
2019-05-17T05:41:45.976Z,80.00
2019-05-17T05:44:12.539Z,79.10
2019-05-17T05:46:39.395Z,77.90
2019-05-17T05:49:06.132Z,78.10
2019-05-17T05:51:32.711Z,78.70
2019-05-17T05:54:01.434Z,77.90
2019-05-17T05:56:27.651Z,77.40
2019-05-17T05:58:54.215Z,73.80
2019-05-17T06:01:21.971Z,72.90
2019-05-17T06:03:51.889Z,72.90
2019-05-17T06:06:17.908Z,70.10
2019-05-17T06:08:44.471Z,68.90
2019-05-17T06:11:12.271Z,68.70
2019-05-17T06:13:39.008Z,68.20
2019-05-17T06:16:05.595Z,67.10
2019-05-17T06:18:32.141Z,68.00
2019-05-17T06:20:58.866Z,67.00
2019-05-17T06:23:25.454Z,67.00
2019-05-17T06:25:52.222Z,66.80
2019-05-17T06:28:18.772Z,66.40
2019-05-17T06:30:45.277Z,64.90
2019-05-17T06:33:16.106Z,64.80
2019-05-17T06:35:42.248Z,64.80
2019-05-17T06:38:08.541Z,64.60
2019-05-17T06:40:42.040Z,64.70
2019-05-17T06:43:12.973Z,64.80
2019-05-17T06:45:41.862Z,63.40
2019-05-17T06:48:11.752Z,63.70
2019-05-17T06:50:43.379Z,63.80
2019-05-17T06:53:12.410Z,64.10
2019-05-17T06:55:44.532Z,63.70
2019-05-17T06:58:22.252Z,64.00
2019-05-17T07:00:53.756Z,63.50
2019-05-17T07:03:24.424Z,63.80
2019-05-17T07:05:59.516Z,64.00
2019-05-17T07:08:29.577Z,64.10
2019-05-17T07:11:00.087Z,64.30
2019-05-17T07:13:29.895Z,64.40
2019-05-17T07:15:59.715Z,64.50
2019-05-17T07:18:29.990Z,64.40
2019-05-17T07:21:03.532Z,64.50
2019-05-17T07:23:32.811Z,64.80
2019-05-17T07:26:02.524Z,64.50
2019-05-17T07:28:32.556Z,65.90
2019-05-17T07:31:07.465Z,66.30
2019-05-17T07:33:39.823Z,65.70
2019-05-17T07:36:10.163Z,65.80
2019-05-17T07:38:41.231Z,64.50
2019-05-17T07:41:12.434Z,64.50
2019-05-17T07:43:45.575Z,64.90
2019-05-17T07:46:16.204Z,64.20
2019-05-17T07:48:49.606Z,64.90
2019-05-17T07:51:19.499Z,64.70
2019-05-17T07:53:49.529Z,63.90
2019-05-17T07:56:19.746Z,63.80
2019-05-17T07:58:49.521Z,64.40
2019-05-17T08:01:21.111Z,63.40
2019-05-17T08:03:50.781Z,63.70
2019-05-17T08:06:20.795Z,64.10
2019-05-17T08:08:50.616Z,63.70
2019-05-17T08:11:24.561Z,64.30
2019-05-17T08:13:54.322Z,65.60
2019-05-17T08:16:25.324Z,64.70
2019-05-17T08:19:00.156Z,65.20
2019-05-17T08:21:30.475Z,64.60
2019-05-17T08:24:04.643Z,63.90
2019-05-17T08:26:40.419Z,63.40
2019-05-17T08:29:13.074Z,62.80
2019-05-17T08:31:44.574Z,62.30
2019-05-17T08:34:11.941Z,62.80
2019-05-17T08:36:40.583Z,62.50
2019-05-17T08:39:10.280Z,64.00
2019-05-17T08:41:40.234Z,64.50
2019-05-17T08:44:07.091Z,62.20
2019-05-17T08:46:39.517Z,60.00
2019-05-17T08:49:09.894Z,60.00
2019-05-17T08:51:47.177Z,60.60
2019-05-17T08:54:14.342Z,60.40
2019-05-17T08:56:40.844Z,59.60
2019-05-17T08:59:09.448Z,59.50
2019-05-17T09:01:38.373Z,58.70
2019-05-17T09:04:04.018Z,59.30
2019-05-17T09:06:31.137Z,59.50
2019-05-17T09:08:57.620Z,59.00
2019-05-17T09:11:24.260Z,59.30
2019-05-17T09:13:57.495Z,58.70
2019-05-17T09:16:20.065Z,59.90
2019-05-17T09:18:46.707Z,59.40
2019-05-17T09:21:13.312Z,58.30
2019-05-17T09:23:39.844Z,59.30
2019-05-17T09:26:06.155Z,59.50
2019-05-17T09:28:32.750Z,58.90
2019-05-17T09:30:59.959Z,59.20
2019-05-17T09:33:27.010Z,59.10
2019-05-17T09:35:53.588Z,58.60
2019-05-17T09:38:20.460Z,58.90
2019-05-17T09:40:47.283Z,57.20
2019-05-17T09:43:15.945Z,57.80
2019-05-17T09:45:42.465Z,57.60
2019-05-17T09:48:10.221Z,58.10
2019-05-17T09:50:39.624Z,58.80
2019-05-17T09:53:05.578Z,58.50
2019-05-17T09:55:33.014Z,60.20
2019-05-17T09:58:00.217Z,59.30
2019-05-17T10:00:29.558Z,59.50
2019-05-17T10:02:55.855Z,57.60
2019-05-17T10:05:22.384Z,58.10
2019-05-17T10:07:50.673Z,58.30
2019-05-17T10:10:20.072Z,59.40
2019-05-17T10:12:46.219Z,58.60
2019-05-17T10:15:14.224Z,59.50
2019-05-17T10:17:40.816Z,59.10
2019-05-17T10:20:07.629Z,58.60
2019-05-17T10:22:34.192Z,60.00
2019-05-17T10:25:00.642Z,59.90
2019-05-17T10:27:27.423Z,58.80
2019-05-17T10:29:53.792Z,59.60
2019-05-17T10:32:20.624Z,59.10
2019-05-17T10:34:49.499Z,59.10
2019-05-17T10:37:16.508Z,59.40
2019-05-17T10:39:43.197Z,59.80
2019-05-17T10:42:10.095Z,59.80
2019-05-17T10:44:46.189Z,58.60
2019-05-17T10:47:05.230Z,58.70
2019-05-17T10:49:31.770Z,59.90
2019-05-17T10:51:59.927Z,60.70
2019-05-17T10:54:26.897Z,60.50
2019-05-17T10:56:53.568Z,60.30
2019-05-17T10:59:20.370Z,60.30
2019-05-17T11:01:47.150Z,60.60
2019-05-17T11:04:13.765Z,60.40
2019-05-17T11:06:40.493Z,60.70
2019-05-17T11:09:10.065Z,59.90
2019-05-17T11:11:36.254Z,59.60
2019-05-17T11:14:03.272Z,59.70
2019-05-17T11:16:29.967Z,60.00
2019-05-17T11:18:56.484Z,59.50
2019-05-17T11:21:23.257Z,57.20
2019-05-17T11:23:49.899Z,57.60
2019-05-17T11:26:16.559Z,58.90
2019-05-17T11:28:43.323Z,58.60
2019-05-17T11:31:09.790Z,58.60
2019-05-17T11:33:49.841Z,59.30
2019-05-17T11:36:16.544Z,60.20
2019-05-17T11:38:43.084Z,58.80
2019-05-17T11:41:20.773Z,58.90
2019-05-17T11:43:58.032Z,58.40
2019-05-17T11:46:35.962Z,59.20
2019-05-17T11:48:52.951Z,59.20
2019-05-17T11:51:19.656Z,59.40
2019-05-17T11:53:46.258Z,60.70
2019-05-17T11:56:21.510Z,60.50
2019-05-17T11:58:48.520Z,59.50
2019-05-17T12:01:15.258Z,58.50
2019-05-17T12:03:42.536Z,59.10
2019-05-17T12:06:09.481Z,57.20
2019-05-17T12:08:36.334Z,57.50
2019-05-17T12:11:03.597Z,58.50
2019-05-17T12:13:30.635Z,58.10
2019-05-17T12:15:57.462Z,56.90
2019-05-17T12:18:24.446Z,56.80
2019-05-17T12:20:51.686Z,56.20
2019-05-17T12:23:19.054Z,57.10
2019-05-17T12:25:45.800Z,57.10
2019-05-17T12:28:12.818Z,57.00
2019-05-17T12:30:39.576Z,57.50
2019-05-17T12:33:06.486Z,58.10
2019-05-17T12:35:33.270Z,57.60
2019-05-17T12:38:02.821Z,56.40
2019-05-17T12:40:29.607Z,55.40
2019-05-17T12:42:56.259Z,56.20
2019-05-17T12:45:23.216Z,56.70
2019-05-17T12:47:49.773Z,57.20
2019-05-17T12:50:16.660Z,59.00
2019-05-17T12:52:43.454Z,58.60
2019-05-17T12:55:10.406Z,58.10
2019-05-17T12:57:37.040Z,55.90
2019-05-17T13:00:07.261Z,55.30
2019-05-17T13:02:33.720Z,55.40
2019-05-17T13:05:00.318Z,55.20
2019-05-17T13:07:26.830Z,54.50
2019-05-17T13:09:53.281Z,54.20
2019-05-17T13:12:20.105Z,54.10
2019-05-17T13:14:46.799Z,54.60
2019-05-17T13:17:13.457Z,53.80
2019-05-17T13:19:40.239Z,54.20
2019-05-17T13:22:06.887Z,54.10
2019-05-17T13:24:37.898Z,54.20
2019-05-17T13:27:04.623Z,54.40
2019-05-17T13:29:31.368Z,54.60
2019-05-17T13:32:00.841Z,54.50
2019-05-17T13:34:27.378Z,52.40
2019-05-17T13:36:53.953Z,52.50
2019-05-17T13:39:20.667Z,53.20
2019-05-17T13:41:47.284Z,53.40
2019-05-17T13:44:13.840Z,54.30
2019-05-17T13:46:40.537Z,53.50
2019-05-17T13:49:07.121Z,54.10
2019-05-17T13:51:33.756Z,54.50
2019-05-17T13:54:00.176Z,54.10
2019-05-17T13:56:26.738Z,53.70
2019-05-17T13:58:53.395Z,53.80
2019-05-17T14:01:19.879Z,53.30
2019-05-17T14:03:46.351Z,54.80
2019-05-17T14:06:13.047Z,54.10
2019-05-17T14:08:43.082Z,54.50
2019-05-17T14:11:10.292Z,54.50
2019-05-17T14:13:37.738Z,54.70
2019-05-17T14:16:04.366Z,53.30
2019-05-17T14:18:30.791Z,53.70
2019-05-17T14:20:57.318Z,53.90
2019-05-17T14:23:24.126Z,53.80
2019-05-17T14:25:50.792Z,53.20
2019-05-17T14:28:18.525Z,53.20
2019-05-17T14:30:45.439Z,53.80
2019-05-17T14:33:12.071Z,53.70
2019-05-17T14:35:38.543Z,52.20
2019-05-17T14:38:05.378Z,52.10
2019-05-17T14:41:04.082Z,52.00
2019-05-17T14:43:01.074Z,51.90
2019-05-17T14:45:27.814Z,52.30
2019-05-17T14:47:54.541Z,52.70
2019-05-17T14:50:21.187Z,53.00
2019-05-17T14:52:47.698Z,52.40
2019-05-17T14:55:14.498Z,52.10
2019-05-17T14:57:43.060Z,52.40
2019-05-17T15:00:10.321Z,51.90
2019-05-17T15:02:38.145Z,50.90
2019-05-17T15:05:06.060Z,49.70
2019-05-17T15:07:32.733Z,49.10
2019-05-17T15:09:59.358Z,48.20
2019-05-17T15:12:28.623Z,49.40
2019-05-17T15:14:56.193Z,49.70
2019-05-17T15:17:22.902Z,50.20
2019-05-17T15:19:51.412Z,49.90
2019-05-17T15:22:17.827Z,48.50
2019-05-17T15:24:44.347Z,48.80
2019-05-17T15:27:10.970Z,47.90
2019-05-17T15:29:37.642Z,47.50
2019-05-17T15:32:04.067Z,48.20
2019-05-17T15:34:30.527Z,48.30
2019-05-17T15:36:57.178Z,49.40
2019-05-17T15:39:23.783Z,50.60
2019-05-17T15:41:50.500Z,51.60
2019-05-17T15:44:17.081Z,51.00
2019-05-17T15:46:43.764Z,50.60
2019-05-17T15:49:10.354Z,50.70
2019-05-17T15:51:36.952Z,50.90
2019-05-17T15:54:03.636Z,50.50
2019-05-17T15:56:30.226Z,50.50
2019-05-17T15:58:56.632Z,50.20
2019-05-17T16:01:23.286Z,50.00
2019-05-17T16:03:49.825Z,50.30
2019-05-17T16:06:16.992Z,50.40
2019-05-17T16:08:43.630Z,49.90
2019-05-17T16:11:10.070Z,49.10
2019-05-17T16:13:36.475Z,49.90
2019-05-17T16:16:03.760Z,50.40
2019-05-17T16:18:30.332Z,51.30
2019-05-17T16:20:56.885Z,50.70
2019-05-17T16:23:23.446Z,50.80
2019-05-17T16:25:49.936Z,50.80
2019-05-17T16:28:16.741Z,52.20
2019-05-17T16:30:44.712Z,52.00
2019-05-17T16:33:11.613Z,51.90
2019-05-17T16:35:38.452Z,52.10
2019-05-17T16:38:08.015Z,51.90
2019-05-17T16:40:39.772Z,51.20
2019-05-17T16:43:17.682Z,50.80
2019-05-17T16:45:34.846Z,51.70
2019-05-17T16:48:01.548Z,51.00
2019-05-17T16:50:28.262Z,51.00
2019-05-17T16:53:05.703Z,50.80
2019-05-17T16:55:26.042Z,51.30
2019-05-17T16:57:51.979Z,50.70
2019-05-17T17:00:37.121Z,51.50
2019-05-17T17:03:04.318Z,51.80
2019-05-17T17:05:52.497Z,51.70
2019-05-17T17:08:19.070Z,52.00
2019-05-17T17:10:45.551Z,52.20
2019-05-17T17:13:12.261Z,52.30
2019-05-17T17:15:39.774Z,52.50
2019-05-17T17:18:06.571Z,52.60
2019-05-17T17:20:33.267Z,52.50
2019-05-17T17:22:59.909Z,52.50
2019-05-17T17:25:26.706Z,52.30
2019-05-17T17:27:53.302Z,52.60
2019-05-17T17:30:19.968Z,52.30
2019-05-17T17:32:46.624Z,52.70
2019-05-17T17:35:13.944Z,53.00
2019-05-17T17:37:40.373Z,53.40
2019-05-17T17:40:08.502Z,53.50
2019-05-17T17:42:36.996Z,53.20
2019-05-17T17:45:06.294Z,53.40
2019-05-17T17:47:32.948Z,53.60
2019-05-17T17:49:59.625Z,53.20
2019-05-17T17:52:26.185Z,53.30
2019-05-17T17:54:52.923Z,53.40
2019-05-17T17:57:19.445Z,54.00
2019-05-17T17:59:45.721Z,54.10
2019-05-17T18:02:12.241Z,54.70
2019-05-17T18:04:38.743Z,54.30
2019-05-17T18:07:05.537Z,54.50
2019-05-17T18:09:32.071Z,55.00
2019-05-17T18:11:58.672Z,55.20
2019-05-17T18:14:25.433Z,56.10
2019-05-17T18:16:51.899Z,55.70
2019-05-17T18:19:19.267Z,56.40
2019-05-17T18:21:45.834Z,56.40
2019-05-17T18:24:12.328Z,56.00
2019-05-17T18:26:39.084Z,56.00
2019-05-17T18:29:07.972Z,56.40
2019-05-17T18:31:34.259Z,56.90
2019-05-17T18:34:01.932Z,56.70
2019-05-17T18:36:28.530Z,56.70
2019-05-17T18:38:55.456Z,56.80
2019-05-17T18:41:21.972Z,57.30
2019-05-17T18:43:48.368Z,58.00
2019-05-17T18:46:15.021Z,57.70
2019-05-17T18:48:41.814Z,58.10
2019-05-17T18:51:08.466Z,57.70
2019-05-17T18:53:35.097Z,57.50
2019-05-17T18:56:01.760Z,57.30
2019-05-17T18:58:28.446Z,57.40
2019-05-17T19:00:55.287Z,56.90
2019-05-17T19:03:21.758Z,56.90
2019-05-17T19:06:01.628Z,57.20
2019-05-17T19:08:28.328Z,57.40
2019-05-17T19:10:54.767Z,57.30
2019-05-17T19:13:21.394Z,57.40
2019-05-17T19:15:48.112Z,57.40
2019-05-17T19:18:14.817Z,57.70
2019-05-17T19:20:43.366Z,57.70
2019-05-17T19:23:10.304Z,58.00
2019-05-17T19:25:37.235Z,57.90
2019-05-17T19:28:03.698Z,57.90
2019-05-17T19:30:32.018Z,57.80
2019-05-17T19:32:58.757Z,57.90
2019-05-17T19:35:25.386Z,58.20
2019-05-17T19:37:51.857Z,58.40
2019-05-17T19:40:23.177Z,58.60
2019-05-17T19:42:49.855Z,59.20
2019-05-17T19:45:18.425Z,58.70
2019-05-17T19:47:45.069Z,59.20
2019-05-17T19:50:11.669Z,59.20
2019-05-17T19:52:38.269Z,59.10
2019-05-17T19:55:05.719Z,58.90
2019-05-17T19:57:32.360Z,58.20
2019-05-17T19:59:58.769Z,58.40
2019-05-17T20:02:25.372Z,58.70
2019-05-17T20:04:52.053Z,58.80
2019-05-17T20:07:18.747Z,58.90
2019-05-17T20:09:45.179Z,59.20
2019-05-17T20:12:11.869Z,59.10
2019-05-17T20:14:38.510Z,59.20
2019-05-17T20:17:05.188Z,59.40
2019-05-17T20:19:31.750Z,59.20
2019-05-17T20:21:58.960Z,59.10
2019-05-17T20:24:25.520Z,59.30
2019-05-17T20:26:52.081Z,59.30
2019-05-17T20:29:18.886Z,59.40
2019-05-17T20:31:45.442Z,59.30
2019-05-17T20:34:11.952Z,59.40
2019-05-17T20:36:38.412Z,59.60
2019-05-17T20:39:05.034Z,59.70
2019-05-17T20:41:31.704Z,60.60
2019-05-17T20:43:58.505Z,60.30
2019-05-17T20:46:24.922Z,60.70
2019-05-17T20:48:51.457Z,60.90
2019-05-17T20:51:18.038Z,61.00
2019-05-17T20:53:44.736Z,61.10
2019-05-17T20:56:11.416Z,61.40
2019-05-17T20:58:38.106Z,61.30
2019-05-17T21:01:04.855Z,61.60
2019-05-17T21:03:31.534Z,62.10
2019-05-17T21:05:58.426Z,62.20
2019-05-17T21:08:26.856Z,61.40
2019-05-17T21:10:53.834Z,61.50
2019-05-17T21:13:20.503Z,61.50
2019-05-17T21:15:48.245Z,61.10
2019-05-17T21:18:15.046Z,61.60
2019-05-17T21:20:41.548Z,61.40
2019-05-17T21:23:08.643Z,61.30
2019-05-17T21:25:35.349Z,61.40
2019-05-17T21:28:01.783Z,61.20
2019-05-17T21:30:28.460Z,60.80
2019-05-17T21:32:56.359Z,61.30
2019-05-17T21:35:23.716Z,61.30
2019-05-17T21:37:50.270Z,61.20
2019-05-17T21:40:17.847Z,61.10
2019-05-17T21:42:44.433Z,61.70
2019-05-17T21:45:11.406Z,60.30
2019-05-17T21:47:37.735Z,60.60
2019-05-17T21:50:05.405Z,60.40
2019-05-17T21:52:31.888Z,61.40
2019-05-17T21:54:58.488Z,61.00
2019-05-17T21:57:24.926Z,61.20
2019-05-17T21:59:51.419Z,61.00
2019-05-17T22:02:18.180Z,61.10
2019-05-17T22:04:45.991Z,61.40
2019-05-17T22:07:12.402Z,62.00
2019-05-17T22:09:39.120Z,62.40
2019-05-17T22:12:07.513Z,62.60
2019-05-17T22:14:34.018Z,62.80
2019-05-17T22:17:00.687Z,62.70
2019-05-17T22:19:27.239Z,63.00
2019-05-17T22:21:53.723Z,64.00
2019-05-17T22:24:21.153Z,64.70
2019-05-17T22:26:47.523Z,65.60
2019-05-17T22:29:14.227Z,66.00
2019-05-17T22:31:40.634Z,65.70
2019-05-17T22:34:07.054Z,66.00
2019-05-17T22:36:35.080Z,66.20
2019-05-17T22:39:01.683Z,66.70
2019-05-17T22:41:30.165Z,66.60
2019-05-17T22:43:56.729Z,65.10
2019-05-17T22:46:35.474Z,64.20
2019-05-17T22:48:51.497Z,64.60
2019-05-17T22:51:18.056Z,62.90
2019-05-17T22:53:44.504Z,62.20
2019-05-17T22:56:11.183Z,60.90
2019-05-17T22:58:37.591Z,60.50
2019-05-17T23:01:04.145Z,60.30
2019-05-17T23:03:30.540Z,60.30
2019-05-17T23:05:57.071Z,60.10
2019-05-17T23:08:23.762Z,59.80
2019-05-17T23:10:50.254Z,59.90
2019-05-17T23:13:16.857Z,60.50
2019-05-17T23:16:02.915Z,60.00
2019-05-17T23:18:30.845Z,59.90
2019-05-17T23:21:17.017Z,60.30
2019-05-17T23:23:43.789Z,60.00
2019-05-17T23:26:11.105Z,59.80
2019-05-17T23:28:37.593Z,60.40
2019-05-17T23:31:04.039Z,59.80
2019-05-17T23:33:30.681Z,59.40
2019-05-17T23:35:57.508Z,58.80
2019-05-17T23:38:25.346Z,58.80
2019-05-17T23:40:52.061Z,58.70
2019-05-17T23:43:19.788Z,58.70
2019-05-17T23:45:46.650Z,58.70
2019-05-17T23:48:13.203Z,58.40
2019-05-17T23:50:39.493Z,58.60
2019-05-17T23:53:05.936Z,58.60
2019-05-17T23:55:52.205Z,58.30
2019-05-17T23:58:18.864Z,58.50
